Time;durP1;ratioP1;P1;durP2;ratioP2;P2;SDS_P1;SDS_P2;PMS_P1;PMS_P2;Temp;Humidity;BMP_temperature;BMP_pressure;BME280_temperature;BME280_humidity;BME280_pressure;Samples;Min_cycle;Max_cycle;Signal;HPM_P1;HPM_P2
2022/05/06 00:12:03;;;;;;;7.47;4.55;;;;;;;14.73;64.94;100397.50;1075896;54;21482;31
2022/05/06 00:21:27;;;;;;;7.65;4.50;;;;;;;14.73;65.25;100391.25;1087961;54;20612;-83
2022/05/06 00:22:28;;;;;;;6.65;4.43;;;;;;;14.79;65.02;100390.56;1088501;54;20041;-83
2022/05/06 00:23:33;;;;;;;7.57;4.07;;;;;;;14.85;64.91;100395.31;1095678;39;20695;-82
2022/05/06 00:24:34;;;;;;;8.00;4.35;;;;;;;14.87;64.65;100392.47;1088582;54;20038;-82
2022/05/06 00:25:39;;;;;;;11.38;3.95;;;;;;;14.90;64.88;100392.13;1088610;54;20042;-82
2022/05/06 00:26:41;;;;;;;5.78;3.78;;;;;;;14.90;64.90;100381.38;1088527;54;20014;-82
2022/05/06 00:27:45;;;;;;;6.78;4.35;;;;;;;14.94;64.78;100393.47;1088514;54;20018;-84
2022/05/06 00:28:47;;;;;;;9.70;4.88;;;;;;;14.88;64.82;100386.91;1088556;54;20021;-83
2022/05/06 00:29:51;;;;;;;6.68;4.25;;;;;;;14.87;65.02;100390.63;1088426;54;20040;-82
2022/05/06 00:30:53;;;;;;;7.55;4.43;;;;;;;14.88;65.10;100386.91;1088202;54;20046;-83
2022/05/06 00:31:57;;;;;;;8.55;5.35;;;;;;;14.87;64.98;100384.38;1088443;54;20030;-83
2022/05/06 00:32:58;;;;;;;7.18;4.68;;;;;;;14.88;65.04;100388.75;1088474;54;20122;-81
2022/05/06 00:34:02;;;;;;;6.07;4.07;;;;;;;14.90;64.89;100376.00;1088470;54;20007;-82
2022/05/06 00:35:08;;;;;;;6.85;4.25;;;;;;;14.86;65.21;100388.09;1088594;54;20023;-82
2022/05/06 00:36:10;;;;;;;5.88;4.28;;;;;;;14.87;65.02;100385.25;1088604;54;20042;-83
2022/05/06 00:37:16;;;;;;;8.63;4.60;;;;;;;14.88;65.16;100388.75;1088551;54;20014;-81
2022/05/06 00:38:18;;;;;;;6.38;4.45;;;;;;;14.90;64.83;100386.75;1088483;54;20029;-84
2022/05/06 00:39:22;;;;;;;6.45;4.25;;;;;;;14.91;64.92;100385.75;1088554;54;20018;-83
2022/05/06 00:40:25;;;;;;;7.07;4.63;;;;;;;14.95;64.72;100392.47;1088484;54;20022;-83
2022/05/06 00:41:29;;;;;;;6.72;4.20;;;;;;;14.94;64.76;100388.94;1088509;54;20030;-82
2022/05/06 00:42:33;;;;;;;7.88;4.30;;;;;;;14.93;65.09;100381.88;1088488;54;20034;-83
2022/05/06 00:43:39;;;;;;;7.60;4.20;;;;;;;14.89;65.05;100379.69;1088555;54;20034;-82
2022/05/06 00:44:43;;;;;;;7.55;4.53;;;;;;;14.88;64.93;100383.38;1088582;54;20122;-85
2022/05/06 00:45:48;;;;;;;7.75;4.30;;;;;;;14.88;64.92;100386.91;1088548;54;20034;-82
2022/05/06 00:46:53;;;;;;;6.53;4.20;;;;;;;14.89;64.98;100382.38;1088215;54;20034;-81
2022/05/06 00:47:55;;;;;;;7.35;4.43;;;;;;;14.93;65.09;100389.97;1088263;54;20777;-82
2022/05/06 00:48:59;;;;;;;8.32;4.22;;;;;;;14.91;65.14;100383.06;1088475;54;20023;-83
2022/05/06 00:50:01;;;;;;;6.00;3.90;;;;;;;14.93;64.99;100387.25;1088447;54;20031;-82
2022/05/06 00:51:08;;;;;;;6.40;4.15;;;;;;;14.97;64.65;100385.91;1088487;54;20139;-83
2022/05/06 00:52:10;;;;;;;5.25;3.88;;;;;;;14.96;65.08;100386.09;1089661;46;20094;-81
2022/05/06 00:53:17;;;;;;;6.05;4.15;;;;;;;14.95;64.91;100389.78;1088462;54;20021;-82
2022/05/06 00:54:24;;;;;;;5.70;3.63;;;;;;;15.01;64.79;100388.28;1088424;54;20034;-81
2022/05/06 00:55:26;;;;;;;4.80;3.38;;;;;;;15.04;64.65;100382.56;1088342;54;20034;-84
2022/05/06 00:56:30;;;;;;;7.15;3.90;;;;;;;15.03;64.52;100387.09;1088416;54;20030;-82
2022/05/06 00:57:33;;;;;;;6.85;4.60;;;;;;;15.03;64.75;100381.72;1088312;54;20014;-82
2022/05/06 00:58:37;;;;;;;7.72;5.10;;;;;;;15.01;64.57;100381.06;1089281;46;20931;-80
2022/05/06 01:00:58;;;;;;;11.02;7.57;;;;;;;14.93;64.93;100386.41;1088330;54;20131;-82
2022/05/06 01:02:02;;;;;;;10.90;6.68;;;;;;;14.96;65.01;100381.56;1088369;54;20037;-82
2022/05/06 01:03:03;;;;;;;11.57;8.27;;;;;;;15.01;64.70;100377.50;1088125;54;20030;-82
2022/05/06 01:04:09;;;;;;;15.20;9.65;;;;;;;15.02;64.53;100380.03;1087965;54;20042;-82
2022/05/06 01:05:12;;;;;;;25.95;16.98;;;;;;;14.93;64.93;100375.63;1088346;54;20065;-84
2022/05/06 01:06:16;;;;;;;22.40;14.90;;;;;;;14.93;64.99;100375.63;1088295;54;20053;-82
2022/05/06 01:07:21;;;;;;;20.33;12.82;;;;;;;14.96;64.58;100383.41;1092321;39;20594;-82
2022/05/06 01:08:29;;;;;;;15.55;10.48;;;;;;;14.90;64.82;100386.75;1091207;39;20605;-83
2022/05/06 01:09:30;;;;;;;15.57;10.07;;;;;;;14.95;65.02;100379.00;1088342;54;20022;-82
2022/05/06 01:10:34;;;;;;;15.07;9.45;;;;;;;14.92;64.79;100390.13;1093457;39;20595;-83
2022/05/06 01:11:39;;;;;;;14.10;8.95;;;;;;;14.92;64.82;100384.75;1088387;54;20034;-83
2022/05/06 01:12:40;;;;;;;12.30;7.85;;;;;;;14.94;65.03;100377.31;1088315;54;20038;-82
2022/05/06 01:13:46;;;;;;;12.85;9.05;;;;;;;14.94;64.65;100383.56;1094476;39;20657;-83
2022/05/06 01:14:47;;;;;;;13.18;8.80;;;;;;;14.94;64.84;100380.03;1088384;54;20038;-81
2022/05/06 01:15:52;;;;;;;13.38;8.30;;;;;;;14.93;64.94;100381.88;1088368;54;20019;-82
2022/05/06 01:16:53;;;;;;;11.02;6.80;;;;;;;14.84;64.98;100380.19;1088188;54;20034;-82
2022/05/06 01:17:59;;;;;;;10.88;6.25;;;;;;;14.91;64.97;100378.50;1088225;54;20030;-82
2022/05/06 01:19:01;;;;;;;8.65;6.00;;;;;;;14.94;65.13;100380.88;1092362;39;20579;-81
2022/05/06 01:20:06;;;;;;;7.35;5.35;;;;;;;14.98;64.72;100378.69;1088063;54;20086;-80
2022/05/06 01:21:09;;;;;;;6.80;4.88;;;;;;;14.96;64.98;100383.41;1088018;54;20030;-81
2022/05/06 01:22:17;;;;;;;8.25;4.95;;;;;;;14.97;64.91;100382.38;1087810;54;20870;-84
2022/05/06 01:23:19;;;;;;;10.82;4.70;;;;;;;15.01;64.65;100378.38;1088375;54;20037;-82
2022/05/06 01:24:23;;;;;;;6.95;4.88;;;;;;;14.95;64.80;100377.19;1088319;54;20030;-82
2022/05/06 01:25:26;;;;;;;6.85;4.18;;;;;;;15.02;64.76;100384.59;1088365;54;20030;-82
2022/05/06 01:26:54;;;;;;;8.25;4.60;;;;;;;14.98;65.00;100387.59;1088386;54;20027;-84
2022/05/06 01:28:05;;;;;;;7.13;4.45;;;;;;;15.00;65.03;100384.75;1088296;54;20064;-83
2022/05/06 01:29:09;;;;;;;6.57;4.00;;;;;;;14.99;64.77;100383.06;1088352;54;20041;-82
2022/05/06 01:30:20;;;;;;;7.38;4.10;;;;;;;15.02;64.69;100393.50;1088375;54;20046;-84
2022/05/06 01:31:24;;;;;;;5.57;3.78;;;;;;;15.00;64.93;100383.91;1088397;54;20034;-83
2022/05/06 01:32:31;;;;;;;6.22;3.75;;;;;;;15.00;64.93;100387.47;1088420;54;20053;-84
2022/05/06 01:33:35;;;;;;;7.00;4.63;;;;;;;14.95;64.98;100390.66;1088366;54;20035;-83
2022/05/06 01:34:43;;;;;;;7.93;4.68;;;;;;;15.00;64.83;100387.47;1090710;46;20034;-82
2022/05/06 01:35:48;;;;;;;6.20;4.03;;;;;;;15.00;64.76;100391.97;1088398;54;20045;-82
2022/05/06 01:36:53;;;;;;;6.90;4.47;;;;;;;14.99;64.90;100396.53;1090450;39;20641;-81
2022/05/06 01:38:04;;;;;;;7.50;4.15;;;;;;;14.97;64.83;100388.59;1088166;54;20037;-83
2022/05/06 01:39:06;;;;;;;7.70;3.97;;;;;;;14.97;65.05;100394.00;1088272;54;20023;-82
2022/05/06 01:40:13;;;;;;;6.25;4.28;;;;;;;14.99;64.80;100391.16;1088714;46;20053;-81
2022/05/06 01:43:38;;;;;;;5.60;3.38;;;;;;;15.03;65.01;100389.78;1088559;54;20053;-87
2022/05/06 01:44:43;;;;;;;6.97;3.92;;;;;;;15.00;65.03;100390.16;1089061;54;20018;-87
2022/05/06 02:45:59;;;;;;;7.45;3.70;;;;;;;14.76;64.95;100394.44;1087592;54;21617;-80
2022/05/06 02:47:00;;;;;;;6.65;3.78;;;;;;;14.77;64.99;100396.13;1087265;54;20036;-80
2022/05/06 02:48:06;;;;;;;6.53;4.03;;;;;;;14.78;64.87;100388.91;1088091;54;20042;-80
2022/05/06 02:49:10;;;;;;;5.65;3.58;;;;;;;14.79;64.60;100396.81;1088205;54;20031;-79
2022/05/06 02:50:12;;;;;;;5.50;3.83;;;;;;;14.81;64.55;100394.81;1088219;54;20030;-81
2022/05/06 02:51:16;;;;;;;6.15;4.47;;;;;;;14.78;64.65;100397.00;1088159;54;20034;-79
2022/05/06 02:52:18;;;;;;;5.22;3.78;;;;;;;14.81;64.61;100392.13;1088144;54;20034;-81
2022/05/06 02:53:23;;;;;;;6.13;4.07;;;;;;;14.82;64.46;100396.50;1088218;54;20021;-78
2022/05/06 02:54:24;;;;;;;6.28;3.85;;;;;;;14.81;64.31;100396.66;1088128;54;20035;-81
2022/05/06 02:55:29;;;;;;;5.82;3.55;;;;;;;14.82;64.38;100392.94;1088073;54;20075;-81
2022/05/06 02:56:30;;;;;;;5.22;3.67;;;;;;;14.79;64.42;100394.13;1088184;54;20042;-79
2022/05/06 02:57:35;;;;;;;5.57;3.40;;;;;;;14.80;64.08;100401.19;1088207;54;20018;-78
2022/05/06 02:58:39;;;;;;;7.15;3.75;;;;;;;14.82;64.08;100395.66;1088160;54;20042;-78
2022/05/06 02:59:41;;;;;;;7.47;4.00;;;;;;;14.80;64.00;100395.81;1088932;47;20808;-78
2022/05/06 03:00:46;;;;;;;7.68;4.25;;;;;;;14.79;63.74;100399.50;1087703;54;20035;-80
2022/05/06 03:01:50;;;;;;;4.50;3.25;;;;;;;14.79;63.72;100391.44;1087707;54;20038;-79
2022/05/06 03:02:55;;;;;;;5.10;3.47;;;;;;;14.82;63.82;100398.34;1087678;54;20030;-79
2022/05/06 03:03:56;;;;;;;5.25;3.67;;;;;;;14.79;63.74;100396.81;1087778;54;20038;-81
2022/05/06 03:05:00;;;;;;;7.13;4.18;;;;;;;14.74;63.66;100396.44;1087714;54;20034;-79
2022/05/06 03:06:02;;;;;;;7.30;4.40;;;;;;;14.68;63.84;100393.59;1088947;47;20058;-81
2022/05/06 03:07:08;;;;;;;8.05;4.00;;;;;;;14.70;63.79;100394.25;1088883;31;20713;-80
2022/05/06 03:08:10;;;;;;;6.93;5.38;;;;;;;14.71;63.60;100399.50;1088117;54;20044;-79
2022/05/06 03:09:14;;;;;;;7.55;4.90;;;;;;;14.75;63.70;100398.16;1088146;54;20910;-80
2022/05/06 03:10:16;;;;;;;6.50;4.28;;;;;;;14.73;63.44;100397.50;1088131;54;20026;-80
2022/05/06 03:11:20;;;;;;;5.43;3.85;;;;;;;14.76;63.63;100397.13;1088150;54;20030;-80
2022/05/06 03:12:23;;;;;;;7.70;4.28;;;;;;;14.71;63.54;100404.88;1088055;54;20034;-80
2022/05/06 03:13:27;;;;;;;7.03;3.70;;;;;;;14.74;63.37;100399.16;1088026;54;20026;-79
2022/05/06 03:14:28;;;;;;;7.13;4.22;;;;;;;14.73;63.46;100397.50;1088105;54;20026;-80
2022/05/06 03:15:32;;;;;;;8.00;4.10;;;;;;;14.76;63.50;100396.31;1088120;54;20034;-81
2022/05/06 03:16:34;;;;;;;6.22;3.88;;;;;;;14.72;63.35;100400.31;1088124;54;20041;-80
2022/05/06 03:40:29;;;;;;;6.97;4.70;;;;;;;14.19;63.88;100401.25;1088131;54;20026;-76
2022/05/06 03:41:31;;;;;;;7.47;4.68;;;;;;;14.24;64.07;100399.94;1088397;54;20037;-76
2022/05/06 03:42:36;;;;;;;7.00;4.32;;;;;;;14.32;63.88;100403.50;1090371;39;20591;-77
2022/05/06 03:43:41;;;;;;;7.32;4.40;;;;;;;14.35;63.82;100391.59;1088401;54;20030;-77
2022/05/06 03:44:43;;;;;;;7.18;4.30;;;;;;;14.40;63.83;100405.38;1088338;54;20042;-78
2022/05/06 03:45:47;;;;;;;9.75;4.97;;;;;;;14.42;63.55;100389.94;1089209;46;20049;-77
2022/05/06 03:46:49;;;;;;;7.68;4.20;;;;;;;14.47;63.59;100395.66;1089150;46;20019;-77
2022/05/06 03:47:54;;;;;;;6.13;3.95;;;;;;;14.49;63.39;100403.59;1088394;54;20035;-78
2022/05/06 03:48:56;;;;;;;7.97;4.25;;;;;;;14.45;63.76;100399.53;1088371;54;20057;-78
2022/05/06 03:51:23;;;;;;;6.07;3.85;;;;;;;14.43;63.81;100397.00;1088371;54;20041;-76
2022/05/06 03:52:25;;;;;;;7.18;3.60;;;;;;;14.45;63.38;100397.66;1088356;54;20035;-76
2022/05/06 03:53:27;;;;;;;5.70;4.10;;;;;;;14.47;63.48;100411.78;1090406;46;20084;-77
2022/05/06 03:54:33;;;;;;;6.28;4.03;;;;;;;14.46;63.68;100402.03;1089552;39;20590;-77
2022/05/06 03:55:37;;;;;;;8.05;3.53;;;;;;;14.48;63.55;100410.78;1089481;39;20635;-78
2022/05/06 03:56:41;;;;;;;5.10;3.13;;;;;;;14.54;63.44;100411.16;1088242;54;20046;-77
2022/05/06 03:57:43;;;;;;;5.57;3.42;;;;;;;14.52;63.57;100405.94;1088370;54;20045;-77
2022/05/06 03:58:47;;;;;;;5.80;3.88;;;;;;;14.54;63.64;100403.94;1088403;54;21047;-77
2022/05/06 03:59:49;;;;;;;6.32;3.42;;;;;;;14.56;63.59;100406.44;1088401;54;20045;-77
2022/05/06 04:00:53;;;;;;;5.32;3.85;;;;;;;14.58;63.50;100407.13;1088428;54;20038;-76
2022/05/06 04:01:55;;;;;;;8.48;4.30;;;;;;;14.54;63.42;100408.47;1088420;54;20034;-76
2022/05/06 04:02:59;;;;;;;7.28;4.10;;;;;;;14.55;63.31;100410.16;1088378;54;20082;-77
2022/05/06 04:04:01;;;;;;;8.02;4.07;;;;;;;14.55;63.52;100408.31;1088504;54;20042;-77
2022/05/06 04:05:07;;;;;;;6.50;4.07;;;;;;;14.41;63.79;100414.28;1093803;31;20625;-78
2022/05/06 04:06:13;;;;;;;6.85;3.90;;;;;;;14.43;63.70;100413.13;1091825;46;20098;-77
2022/05/06 04:07:14;;;;;;;10.70;4.57;;;;;;;14.41;63.76;100417.84;1088478;54;20038;-78
2022/05/06 04:08:18;;;;;;;10.10;4.70;;;;;;;14.44;63.44;100414.81;1088453;54;20022;-76
2022/05/06 04:09:21;;;;;;;6.10;4.10;;;;;;;14.44;63.34;100413.97;1088630;54;20037;-76
2022/05/06 04:10:25;;;;;;;9.05;4.95;;;;;;;14.42;63.47;100416.84;1088496;54;20086;-77
2022/05/06 04:11:29;;;;;;;7.05;4.07;;;;;;;14.40;63.24;100415.31;1088257;54;20034;-77
2022/05/06 04:12:34;;;;;;;6.40;4.38;;;;;;;14.42;63.53;100418.66;1088341;54;20041;-77
2022/05/06 04:13:35;;;;;;;7.40;4.50;;;;;;;14.37;63.20;100419.16;1091333;46;20037;-77
2022/05/06 04:14:39;;;;;;;9.70;4.82;;;;;;;14.36;63.70;100412.06;1092284;46;20049;-77
2022/05/06 04:15:41;;;;;;;9.90;5.05;;;;;;;14.34;63.53;100424.88;1092219;46;20034;-77
2022/05/06 04:16:45;;;;;;;8.88;4.40;;;;;;;14.27;63.91;100421.09;1088496;54;20022;-76
2022/05/06 04:17:49;;;;;;;7.25;4.50;;;;;;;14.28;64.04;100420.09;1088331;54;20018;-77
2022/05/06 04:18:51;;;;;;;5.32;4.03;;;;;;;14.26;64.11;100417.59;1088386;54;20049;-78
2022/05/06 04:23:47;;;;;;;8.32;4.85;;;;;;;14.15;64.06;100425.91;1088341;54;20041;-78
2022/05/06 04:24:50;;;;;;;7.38;4.43;;;;;;;14.15;63.53;100429.47;1088393;54;20030;-77
2022/05/06 04:25:55;;;;;;;8.35;4.90;;;;;;;14.16;63.71;100423.09;1088344;54;20058;-77
2022/05/06 04:26:59;;;;;;;6.65;4.53;;;;;;;14.17;63.66;100430.13;1088413;54;20045;-77
2022/05/06 04:28:03;;;;;;;6.50;4.28;;;;;;;14.14;63.54;100430.47;1087833;54;20031;-76
2022/05/06 04:29:08;;;;;;;7.22;4.50;;;;;;;14.15;63.73;100432.16;1087919;54;20042;-76
2022/05/06 04:30:11;;;;;;;6.20;4.60;;;;;;;14.16;63.68;100427.59;1088383;54;20061;-78
2022/05/06 04:31:17;;;;;;;5.70;4.13;;;;;;;14.13;63.88;100433.28;1089391;46;20022;-77
2022/05/06 04:32:18;;;;;;;6.35;4.13;;;;;;;14.11;63.94;100425.41;1088308;54;20026;-78
2022/05/06 04:33:24;;;;;;;6.25;3.83;;;;;;;14.15;63.57;100436.66;1088346;54;20045;-76
2022/05/06 04:34:26;;;;;;;6.47;4.20;;;;;;;14.17;63.82;100434.69;1088250;54;20102;-77
2022/05/06 04:35:30;;;;;;;5.80;3.78;;;;;;;14.13;63.52;100433.28;1088411;54;20034;-78
2022/05/06 04:36:37;;;;;;;7.05;3.90;;;;;;;14.16;63.71;100433.84;1094987;39;20511;-79
2022/05/06 04:37:38;;;;;;;5.55;3.67;;;;;;;14.19;63.47;100440.75;1088294;54;20030;-77
2022/05/06 04:38:42;;;;;;;8.32;4.57;;;;;;;14.23;63.30;100434.03;1095453;39;20522;-79
2022/05/06 04:39:44;;;;;;;6.20;4.30;;;;;;;14.23;63.60;100438.56;1088099;54;20042;-75
2022/05/06 04:40:48;;;;;;;5.40;3.90;;;;;;;14.25;63.38;100447.34;1088309;54;20050;-76
2022/05/06 04:41:50;;;;;;;6.03;4.32;;;;;;;14.23;63.46;100438.56;1088388;54;20030;-76
2022/05/06 04:42:57;;;;;;;6.28;4.30;;;;;;;14.25;63.51;100445.47;1091500;31;20551;-77
2022/05/06 04:44:01;;;;;;;5.93;3.72;;;;;;;14.27;63.44;100443.47;1088198;54;20094;-77
2022/05/06 04:45:04;;;;;;;6.50;4.03;;;;;;;14.28;63.25;100447.00;1087911;54;20046;-76
2022/05/06 04:46:08;;;;;;;5.95;4.25;;;;;;;14.18;63.42;100449.81;1088195;54;20989;-78
2022/05/06 04:47:10;;;;;;;9.00;4.70;;;;;;;14.22;63.36;100458.41;1088300;54;20027;-77
2022/05/06 04:48:15;;;;;;;7.22;5.03;;;;;;;14.20;63.33;100445.94;1088815;39;20496;-77
2022/05/06 04:49:16;;;;;;;8.05;4.30;;;;;;;14.15;63.36;100450.97;1088334;54;20031;-77
2022/05/06 04:50:21;;;;;;;10.25;5.32;;;;;;;14.16;63.24;100463.41;1088270;54;20023;-76
2022/05/06 04:51:22;;;;;;;8.30;5.05;;;;;;;14.12;63.09;100453.97;1088010;54;20089;-76
2022/05/06 04:52:27;;;;;;;5.93;4.05;;;;;;;14.16;63.39;100451.81;1088285;54;20030;-76
2022/05/06 04:53:31;;;;;;;8.57;4.60;;;;;;;14.15;63.05;100452.81;1088338;54;20041;-77
2022/05/06 04:54:32;;;;;;;6.72;4.47;;;;;;;14.17;63.09;100459.69;1088367;54;20627;-77
2022/05/06 04:55:37;;;;;;;6.38;4.47;;;;;;;14.13;63.21;100461.03;1088310;54;20118;-76
2022/05/06 04:56:41;;;;;;;9.68;4.22;;;;;;;14.10;62.97;100463.19;1088838;46;20023;-76
2022/05/06 04:57:42;;;;;;;7.30;4.60;;;;;;;14.14;62.84;100462.72;1088264;54;20038;-76
2022/05/06 04:58:49;;;;;;;7.18;4.38;;;;;;;14.14;62.96;100461.88;1088270;54;20045;-76
2022/05/06 04:59:51;;;;;;;8.30;4.78;;;;;;;14.14;62.70;100468.09;1088284;54;20038;-76
2022/05/06 05:00:55;;;;;;;7.47;4.28;;;;;;;14.19;62.63;100475.69;1088043;54;20867;-76
2022/05/06 05:01:56;;;;;;;7.38;4.20;;;;;;;14.17;62.71;100466.94;1087871;54;20038;-76
2022/05/06 05:03:01;;;;;;;6.65;3.97;;;;;;;14.20;62.56;100467.47;1088268;54;20034;-76
2022/05/06 05:04:06;;;;;;;6.78;4.55;;;;;;;14.19;62.54;100473.84;1088240;54;20030;-78
2022/05/06 05:05:09;;;;;;;8.70;4.47;;;;;;;14.22;62.40;100464.59;1088291;54;20053;-76
2022/05/06 05:06:13;;;;;;;6.20;4.28;;;;;;;14.23;62.37;100462.78;1088045;54;20046;-76
2022/05/06 05:07:15;;;;;;;7.85;4.57;;;;;;;14.22;62.48;100474.53;1089700;39;20550;-77
2022/05/06 05:08:19;;;;;;;6.85;3.92;;;;;;;14.18;62.27;100472.16;1088273;54;20144;-76
2022/05/06 05:09:21;;;;;;;9.77;4.60;;;;;;;14.16;62.43;100470.63;1089583;46;20038;-77
2022/05/06 05:10:25;;;;;;;7.50;4.40;;;;;;;14.19;62.58;100468.47;1088246;54;20035;-77
2022/05/06 05:11:29;;;;;;;6.85;4.05;;;;;;;14.18;62.55;100469.47;1088273;54;20038;-79
2022/05/06 05:12:33;;;;;;;7.30;4.43;;;;;;;14.16;62.39;100476.88;1088179;54;20081;-77
2022/05/06 05:13:38;;;;;;;5.57;3.83;;;;;;;14.17;62.48;100475.00;1088230;54;20065;-77
2022/05/06 05:14:45;;;;;;;5.90;3.63;;;;;;;14.17;62.19;100478.53;1088160;54;20062;-77
2022/05/06 05:15:49;;;;;;;8.23;4.35;;;;;;;14.17;62.23;100475.84;1089386;39;20457;-79
2022/05/06 05:16:50;;;;;;;8.35;4.05;;;;;;;14.20;62.13;100478.22;1086922;54;20045;-77
2022/05/06 05:17:55;;;;;;;6.38;4.15;;;;;;;14.17;62.24;100475.84;1086423;54;20034;-78
2022/05/06 05:18:56;;;;;;;10.35;4.82;;;;;;;14.10;62.17;100477.47;1086743;54;20065;-77
2022/05/06 05:20:01;;;;;;;9.38;5.03;;;;;;;13.99;62.44;100477.72;1087308;54;20027;-80
2022/05/06 05:21:03;;;;;;;12.93;5.30;;;;;;;13.96;62.40;100486.13;1087313;54;20041;-79
2022/05/06 05:22:10;;;;;;;9.35;5.22;;;;;;;13.80;62.73;100482.28;1088239;54;20046;-77
2022/05/06 05:23:12;;;;;;;10.02;5.13;;;;;;;13.73;62.89;100482.09;1088236;54;20062;-76
2022/05/06 05:24:16;;;;;;;9.38;4.90;;;;;;;13.80;62.82;100482.28;1088285;54;20037;-76
2022/05/06 05:25:20;;;;;;;8.88;4.88;;;;;;;13.78;62.82;100480.75;1090617;39;20185;-77
2022/05/06 05:26:23;;;;;;;9.07;5.07;;;;;;;13.73;63.07;100482.09;1088177;54;20034;-76
2022/05/06 05:27:28;;;;;;;9.77;4.70;;;;;;;13.83;62.69;100478.47;1088250;54;20030;-77
2022/05/06 05:28:32;;;;;;;14.05;5.25;;;;;;;13.83;62.63;100473.91;1088126;54;20039;-77
2022/05/06 05:29:34;;;;;;;9.60;5.38;;;;;;;13.70;62.82;100484.19;1088311;54;20019;-76
2022/05/06 05:30:41;;;;;;;10.32;5.13;;;;;;;13.78;62.86;100489.69;1088238;54;20041;-77
2022/05/06 05:31:43;;;;;;;11.93;5.50;;;;;;;13.71;62.90;100488.59;1088211;54;20038;-76
2022/05/06 05:32:47;;;;;;;9.05;4.88;;;;;;;13.79;62.79;100485.97;1088144;54;20078;-76
2022/05/06 05:33:49;;;;;;;8.98;4.80;;;;;;;13.87;62.39;100488.75;1088111;54;20038;-76
2022/05/06 05:34:53;;;;;;;9.77;5.22;;;;;;;13.93;62.38;100486.41;1087842;54;20027;-77
2022/05/06 05:35:55;;;;;;;8.70;4.30;;;;;;;13.99;62.31;100492.03;1088257;54;20034;-77
2022/05/06 05:36:59;;;;;;;13.25;6.07;;;;;;;13.93;61.96;100489.97;1088282;54;20042;-76
2022/05/06 05:38:01;;;;;;;8.48;4.32;;;;;;;13.97;61.99;100494.00;1088258;54;20929;-77
2022/05/06 05:39:05;;;;;;;8.07;4.63;;;;;;;13.95;61.95;100492.50;1088212;54;20025;-77
2022/05/06 05:40:11;;;;;;;12.02;4.60;;;;;;;13.95;61.95;100500.56;1087962;54;20050;-77
2022/05/06 05:41:12;;;;;;;12.10;4.47;;;;;;;13.96;61.62;100492.31;1087888;54;20026;-77
2022/05/06 05:42:22;;;;;;;11.02;5.20;;;;;;;13.90;61.90;100495.66;1092318;39;20562;-77
2022/05/06 05:48:38;;;;;;;6.40;3.83;;;;;;;14.12;61.32;100493.47;1088260;54;20034;-76
2022/05/06 05:49:43;;;;;;;7.50;3.70;;;;;;;14.17;61.14;100493.81;1088299;54;20058;-77
2022/05/06 05:50:47;;;;;;;10.88;5.18;;;;;;;14.12;61.43;100494.28;1087926;54;20026;-77
2022/05/06 05:51:49;;;;;;;10.85;4.18;;;;;;;14.14;61.03;100489.63;1087946;54;20042;-77
2022/05/06 05:52:53;;;;;;;9.38;4.25;;;;;;;14.11;61.05;100495.28;1087894;54;20074;-77
2022/05/06 05:53:55;;;;;;;9.60;4.13;;;;;;;14.13;61.16;100493.31;1088237;54;20030;-77
2022/05/06 05:54:59;;;;;;;10.57;3.92;;;;;;;14.17;60.83;100494.66;1088279;54;20019;-76
2022/05/06 05:56:05;;;;;;;7.00;4.03;;;;;;;14.20;60.86;100494.34;1089765;39;20550;-77
2022/05/06 05:57:10;;;;;;;7.50;3.97;;;;;;;14.22;60.98;100496.88;1088295;54;20026;-77
2022/05/06 05:58:11;;;;;;;8.45;4.18;;;;;;;14.19;60.86;100502.59;1088221;54;20027;-77
2022/05/06 05:59:15;;;;;;;7.25;4.20;;;;;;;14.24;60.79;100499.41;1088246;54;20106;-76
2022/05/06 06:00:20;;;;;;;8.55;4.70;;;;;;;14.10;60.69;100504.34;1088262;54;20027;-77
2022/05/06 06:01:24;;;;;;;8.27;5.15;;;;;;;14.14;60.57;100503.06;1088234;54;20741;-77
2022/05/06 06:02:29;;;;;;;8.38;4.47;;;;;;;14.11;60.81;100503.34;1088157;54;20697;-76
2022/05/06 06:03:30;;;;;;;7.55;4.07;;;;;;;14.14;60.47;100505.75;1088232;54;20035;-76
2022/05/06 06:04:35;;;;;;;7.60;5.20;;;;;;;14.06;60.43;100505.69;1088247;54;20041;-77
2022/05/06 06:05:39;;;;;;;10.73;4.85;;;;;;;14.07;60.42;100504.69;1093329;39;20663;-78
2022/05/06 06:06:41;;;;;;;7.53;4.18;;;;;;;14.11;60.69;100500.66;1088148;54;20018;-77
2022/05/06 06:07:45;;;;;;;8.30;4.55;;;;;;;14.13;60.50;100509.44;1091762;39;20663;-78
2022/05/06 06:08:47;;;;;;;11.32;4.45;;;;;;;14.16;60.41;100493.00;1088072;54;20026;-78
2022/05/06 06:09:51;;;;;;;7.18;3.95;;;;;;;14.24;60.42;100499.41;1088244;54;20090;-77
2022/05/06 06:10:53;;;;;;;6.68;3.83;;;;;;;14.27;60.05;100499.94;1088215;54;20034;-77
2022/05/06 06:11:57;;;;;;;6.30;3.70;;;;;;;14.33;59.84;100493.09;1088225;54;20041;-77
2022/05/06 06:13:00;;;;;;;7.93;4.15;;;;;;;14.38;59.91;100498.81;1090763;46;20037;-77
2022/05/06 06:14:05;;;;;;;5.47;3.67;;;;;;;14.38;59.69;100501.50;1088156;54;20053;-76
2022/05/06 06:15:10;;;;;;;6.85;3.45;;;;;;;14.38;59.82;100501.50;1088211;54;20027;-77
2022/05/06 06:16:12;;;;;;;7.68;4.18;;;;;;;14.38;59.66;100493.44;1088240;54;20023;-77
2022/05/06 06:17:19;;;;;;;10.52;4.82;;;;;;;14.25;59.10;100493.03;1088143;54;20069;-76
2022/05/06 06:18:24;;;;;;;11.15;4.80;;;;;;;14.14;59.39;100495.00;1088163;54;20018;-76
2022/05/06 06:19:28;;;;;;;11.15;4.53;;;;;;;14.18;59.82;100500.88;1088191;54;20110;-77
2022/05/06 06:20:32;;;;;;;7.43;4.80;;;;;;;14.24;59.77;100496.72;1088234;54;20030;-76
2022/05/06 06:21:34;;;;;;;7.65;4.32;;;;;;;14.27;59.68;100493.72;1090711;39;20859;-76
2022/05/06 06:22:38;;;;;;;6.25;4.05;;;;;;;14.24;59.64;100488.66;1089096;39;20661;-77
2022/05/06 06:23:40;;;;;;;6.72;4.10;;;;;;;14.28;59.39;100495.41;1087965;54;20027;-76
2022/05/06 06:24:44;;;;;;;8.45;4.30;;;;;;;14.25;59.24;100490.34;1091802;39;20308;-77
2022/05/06 06:25:45;;;;;;;9.23;5.00;;;;;;;14.24;59.10;100492.19;1088128;54;20047;-76
2022/05/06 06:26:50;;;;;;;9.07;5.40;;;;;;;14.19;59.33;100492.66;1088264;54;20115;-76
2022/05/06 06:27:51;;;;;;;10.45;5.15;;;;;;;14.07;59.44;100493.94;1088191;54;20050;-77
2022/05/06 06:28:55;;;;;;;9.30;4.57;;;;;;;14.24;59.27;100494.03;1088166;54;20035;-77
2022/05/06 06:30:00;;;;;;;6.88;4.50;;;;;;;14.17;59.21;100491.97;1087779;54;20030;-75
2022/05/06 06:31:02;;;;;;;7.63;4.35;;;;;;;14.26;59.06;100487.50;1088216;54;20030;-76
2022/05/06 06:32:07;;;;;;;7.38;4.03;;;;;;;14.28;58.88;100492.72;1088103;54;20038;-76
2022/05/06 06:33:11;;;;;;;7.03;4.20;;;;;;;14.30;58.81;100494.25;1088152;54;20026;-76
2022/05/06 06:34:15;;;;;;;6.05;3.80;;;;;;;14.35;58.91;100485.72;1088220;54;20102;-76
2022/05/06 06:35:22;;;;;;;5.72;3.63;;;;;;;14.34;58.45;100487.53;1088131;54;20038;-76
2022/05/06 06:36:24;;;;;;;6.45;3.67;;;;;;;14.28;58.23;100487.31;1088220;54;20086;-77
2022/05/06 06:37:28;;;;;;;8.73;4.10;;;;;;;14.32;58.30;100486.03;1088104;54;20034;-78
2022/05/06 06:38:30;;;;;;;6.40;3.92;;;;;;;14.40;58.05;100491.44;1088088;54;20030;-76
2022/05/06 06:39:34;;;;;;;6.25;3.47;;;;;;;14.50;58.08;100488.63;1088096;54;20034;-77
2022/05/06 06:40:36;;;;;;;16.80;4.38;;;;;;;14.57;57.56;100489.69;1087734;54;20042;-76
2022/05/06 06:41:40;;;;;;;8.70;3.88;;;;;;;14.53;57.60;100485.63;1087634;54;20034;-76
2022/05/06 06:42:42;;;;;;;5.90;3.65;;;;;;;14.63;57.39;100493.59;1089582;39;20673;-77
2022/05/06 06:43:47;;;;;;;8.18;4.30;;;;;;;14.63;57.32;100493.59;1092210;39;20538;-75
2022/05/06 06:44:48;;;;;;;13.85;10.27;;;;;;;14.61;57.19;100492.91;1090826;39;20669;-76
2022/05/06 06:45:54;;;;;;;13.27;8.95;;;;;;;14.70;56.85;100489.28;1088236;54;20836;-77
2022/05/06 06:46:55;;;;;;;10.85;7.40;;;;;;;14.75;56.88;100492.31;1088318;54;20030;-76
2022/05/06 06:48:00;;;;;;;13.98;8.80;;;;;;;14.74;56.55;100484.44;1088449;46;20025;-77
2022/05/06 06:49:05;;;;;;;10.05;6.50;;;;;;;14.79;56.58;100493.72;1094351;46;20098;-76
2022/05/06 06:50:10;;;;;;;9.48;5.70;;;;;;;14.80;56.22;100489.16;1089142;46;20018;-76
2022/05/06 06:51:11;;;;;;;8.10;4.50;;;;;;;14.74;56.67;100490.63;1088308;54;20049;-77
2022/05/06 06:52:22;;;;;;;8.05;4.10;;;;;;;14.59;56.36;100486.84;1088264;54;20030;-76
2022/05/06 06:53:24;;;;;;;6.85;4.47;;;;;;;14.54;56.48;100494.56;1089777;46;20089;-77